Time;durP1;ratioP1;P1;durP2;ratioP2;P2;SDS_P1;SDS_P2;PMS_P1;PMS_P2;Temp;Humidity;BMP_temperature;BMP_pressure;BME280_temperature;BME280_humidity;BME280_pressure;Samples;Min_cycle;Max_cycle;Signal;HPM_P1;HPM_P2
2021/07/17 00:01:38;;;;;;;27.65;19.42;;;;;;;19.93;88.62;97927.37;1706790;84;20909;-73
2021/07/17 00:04:04;;;;;;;26.35;17.95;;;;;;;19.81;90.73;97932.84;1705237;82;21165;-73
2021/07/17 00:06:32;;;;;;;27.85;19.60;;;;;;;19.79;88.74;97930.45;1699128;84;20933;-74
2021/07/17 00:08:58;;;;;;;28.35;18.60;;;;;;;19.68;90.46;97928.72;1699216;83;21411;-74
2021/07/17 00:11:24;;;;;;;25.43;20.27;;;;;;;19.64;90.24;97929.16;1699173;83;20855;-73
2021/07/17 00:13:50;;;;;;;25.23;19.85;;;;;;;19.61;91.11;97933.97;1698944;84;20890;-73
2021/07/17 00:16:25;;;;;;;30.00;20.65;;;;;;;19.63;90.83;97930.88;1699301;84;21283;-74
2021/07/17 00:18:47;;;;;;;23.75;19.17;;;;;;;19.61;90.86;97924.92;1698292;84;21410;-73
2021/07/17 00:21:13;;;;;;;29.70;19.55;;;;;;;19.63;90.33;97918.52;1699045;84;21548;-74
2021/07/17 00:23:39;;;;;;;30.37;20.30;;;;;;;19.62;89.09;97915.53;1699133;84;20890;-74
2021/07/17 00:26:05;;;;;;;29.15;20.43;;;;;;;19.60;89.55;97915.08;1699409;84;20953;-73
2021/07/17 00:28:33;;;;;;;32.38;21.75;;;;;;;19.61;89.58;97915.30;1698925;82;21183;-73
2021/07/17 00:30:59;;;;;;;34.43;21.20;;;;;;;19.64;89.01;97918.16;1699354;84;20958;-73
2021/07/17 00:33:25;;;;;;;29.70;20.92;;;;;;;19.71;88.82;97917.61;1698981;84;20914;-74
2021/07/17 00:35:51;;;;;;;31.50;19.87;;;;;;;19.69;89.00;97921.28;1699671;84;20847;-74
2021/07/17 00:38:17;;;;;;;25.50;19.80;;;;;;;19.65;89.08;97917.59;1699020;84;20965;-73
2021/07/17 00:40:43;;;;;;;27.02;22.25;;;;;;;19.68;89.05;97914.98;1699165;83;20996;-73
2021/07/17 00:43:09;;;;;;;31.33;21.15;;;;;;;19.77;89.04;97917.63;1698865;84;20934;-73
2021/07/17 00:45:34;;;;;;;29.52;20.80;;;;;;;19.80;88.88;97912.80;1699257;84;20890;-74
2021/07/17 00:48:00;;;;;;;27.77;20.10;;;;;;;19.82;88.66;97920.13;1698859;84;20967;-73
2021/07/17 00:50:27;;;;;;;25.52;19.85;;;;;;;19.85;88.60;97919.46;1699319;82;20859;-73
2021/07/17 00:52:53;;;;;;;24.55;18.90;;;;;;;19.88;88.52;97918.77;1698876;84;21310;-74
2021/07/17 00:55:21;;;;;;;23.40;18.35;;;;;;;19.80;88.69;97921.63;1699184;84;21461;-73
2021/07/17 00:57:48;;;;;;;27.25;19.50;;;;;;;19.80;89.02;97922.42;1698968;84;20986;-73
2021/07/17 01:00:15;;;;;;;25.48;19.23;;;;;;;19.76;88.99;97922.09;1703115;83;20942;-73
2021/07/17 01:02:52;;;;;;;25.30;19.60;;;;;;;19.78;89.40;97919.22;1708004;83;21065;-73
2021/07/17 01:05:18;;;;;;;26.85;18.55;;;;;;;19.84;89.26;97919.81;1707012;83;21085;-72
2021/07/17 01:07:48;;;;;;;34.15;19.32;;;;;;;19.90;89.25;97917.84;1706800;84;20874;-72
2021/07/17 01:10:16;;;;;;;21.40;17.80;;;;;;;19.88;89.33;97920.14;1707047;82;21037;-74
2021/07/17 01:12:43;;;;;;;24.07;19.12;;;;;;;19.90;89.15;97925.30;1706947;82;20966;-74
2021/07/17 01:15:10;;;;;;;23.87;18.52;;;;;;;19.88;91.24;97931.72;1707037;84;20993;-73
2021/07/17 01:17:36;;;;;;;28.50;20.05;;;;;;;19.93;90.17;97926.00;1706693;84;21271;-73
2021/07/17 01:20:06;;;;;;;24.72;18.60;;;;;;;19.92;91.17;97924.41;1707189;83;20850;-74
2021/07/17 01:22:32;;;;;;;28.75;18.77;;;;;;;19.95;90.29;97928.63;1706294;84;20966;-72
2021/07/17 01:24:58;;;;;;;27.58;19.00;;;;;;;19.95;90.33;97931.38;1707276;83;20981;-72
2021/07/17 01:27:24;;;;;;;32.75;18.70;;;;;;;19.99;90.06;97935.61;1707101;84;20921;-72
2021/07/17 01:29:50;;;;;;;26.25;17.80;;;;;;;20.02;89.48;97939.06;1707144;82;21309;-72
2021/07/17 01:32:20;;;;;;;28.27;19.02;;;;;;;20.07;89.14;97933.32;1707004;84;20854;-73
2021/07/17 01:34:46;;;;;;;28.70;18.45;;;;;;;20.10;89.36;97929.91;1707217;84;21022;-73
2021/07/17 01:37:12;;;;;;;24.15;18.12;;;;;;;20.14;89.11;97928.63;1707058;83;20958;-73
2021/07/17 01:39:38;;;;;;;26.90;18.10;;;;;;;20.15;89.07;97921.40;1707379;82;20874;-73
2021/07/17 01:42:04;;;;;;;25.23;18.30;;;;;;;20.15;89.92;97927.48;1707056;84;20890;-73
2021/07/17 01:44:41;;;;;;;24.63;18.10;;;;;;;20.14;89.82;97930.80;1707149;84;21025;-72
2021/07/17 01:47:08;;;;;;;20.82;16.90;;;;;;;20.17;90.07;97929.33;1706936;84;20969;-74
2021/07/17 01:49:34;;;;;;;21.60;17.20;;;;;;;20.12;89.66;97933.67;1707160;83;21053;-74
2021/07/17 01:51:59;;;;;;;22.22;17.55;;;;;;;20.10;88.90;97931.28;1707092;83;20934;-73
2021/07/17 01:54:25;;;;;;;23.27;17.57;;;;;;;20.07;89.17;97929.77;1706910;83;21126;-73
2021/07/17 01:56:51;;;;;;;23.40;16.87;;;;;;;20.08;89.08;97928.08;1707053;84;20898;-75
2021/07/17 01:59:17;;;;;;;19.77;17.25;;;;;;;20.16;88.93;97931.25;1706864;82;20966;-73
2021/07/17 02:01:43;;;;;;;23.67;18.55;;;;;;;20.23;88.77;97924.61;1710755;82;20977;-73
2021/07/17 02:04:09;;;;;;;29.02;25.23;;;;;;;20.28;88.63;97924.39;1710089;82;21013;-74
2021/07/17 02:06:35;;;;;;;33.35;29.75;;;;;;;20.28;88.65;97924.39;1707196;84;21030;-74
2021/07/17 02:09:01;;;;;;;24.63;20.48;;;;;;;20.23;89.44;97923.80;1706807;84;20878;-74
2021/07/17 02:11:27;;;;;;;28.23;19.25;;;;;;;20.17;88.99;97924.63;1707103;84;21085;-74
2021/07/17 02:13:53;;;;;;;29.00;24.02;;;;;;;20.17;88.71;97920.50;1706930;84;20917;-73
2021/07/17 02:16:21;;;;;;;31.17;22.22;;;;;;;20.18;89.46;97922.11;1707172;83;20962;-74
2021/07/17 02:18:46;;;;;;;26.75;18.37;;;;;;;20.14;89.34;97913.50;1686926;84;21323;-73
2021/07/17 02:21:13;;;;;;;29.50;22.05;;;;;;;20.19;89.36;97911.91;1707106;82;21560;-73
2021/07/17 02:23:39;;;;;;;27.82;20.35;;;;;;;20.27;88.96;97913.73;1706801;83;20959;-73
2021/07/17 02:26:05;;;;;;;25.68;19.48;;;;;;;20.22;90.67;97908.45;1707203;83;20997;-74
2021/07/17 02:28:31;;;;;;;25.02;16.97;;;;;;;20.24;89.50;97908.33;1706775;83;20966;-73
2021/07/17 02:30:56;;;;;;;25.37;18.45;;;;;;;20.28;89.08;97915.33;1707162;84;21309;-73
2021/07/17 02:33:22;;;;;;;24.20;17.23;;;;;;;20.19;88.96;97928.41;1706725;83;20905;-74
2021/07/17 02:35:48;;;;;;;24.23;17.73;;;;;;;20.14;89.15;97928.05;1707211;84;20842;-74
2021/07/17 02:38:14;;;;;;;20.70;17.55;;;;;;;20.07;89.05;97921.52;1706906;82;21469;-73
2021/07/17 02:40:40;;;;;;;21.75;18.02;;;;;;;20.08;89.25;97928.62;1707208;83;21017;-74
2021/07/17 02:43:06;;;;;;;24.80;18.65;;;;;;;20.05;89.45;97934.24;1706925;83;20976;-74
2021/07/17 02:45:32;;;;;;;25.55;19.52;;;;;;;20.03;89.40;97925.54;1707007;84;20870;-74
2021/07/17 02:47:58;;;;;;;24.20;18.70;;;;;;;20.10;89.38;97920.84;1706968;83;20898;-73
2021/07/17 02:50:24;;;;;;;28.65;20.20;;;;;;;20.15;89.76;97917.27;1707327;84;20961;-74
2021/07/17 02:52:51;;;;;;;27.55;19.25;;;;;;;20.19;89.70;97918.20;1706969;84;20921;-74
2021/07/17 02:55:17;;;;;;;22.58;17.75;;;;;;;20.21;89.40;97928.28;1707164;82;21212;-74
2021/07/17 02:57:43;;;;;;;26.25;18.10;;;;;;;20.18;89.94;97924.86;1706878;83;20996;-73
2021/07/17 03:00:11;;;;;;;20.05;17.17;;;;;;;20.19;90.05;97918.78;1707212;83;20890;-73
2021/07/17 03:02:37;;;;;;;25.15;18.30;;;;;;;20.19;90.23;97920.95;1711942;83;20970;-73
2021/07/17 03:05:04;;;;;;;22.93;16.35;;;;;;;20.20;89.96;97919.00;1709224;83;20866;-74
2021/07/17 03:07:30;;;;;;;21.12;17.12;;;;;;;20.18;89.65;97928.19;1706765;82;21079;-73
2021/07/17 03:09:56;;;;;;;21.97;17.25;;;;;;;20.15;90.33;97921.97;1707104;83;21551;-73
2021/07/17 03:12:22;;;;;;;21.68;17.15;;;;;;;20.17;90.75;97916.38;1707040;83;20854;-73
2021/07/17 03:14:48;;;;;;;25.30;17.92;;;;;;;20.22;90.12;97916.12;1706774;84;20870;-73
2021/07/17 03:17:14;;;;;;;27.32;17.52;;;;;;;20.29;89.81;97912.80;1707029;84;20855;-74
2021/07/17 03:19:40;;;;;;;22.50;17.25;;;;;;;20.33;90.02;97917.83;1706885;84;21196;-73
2021/07/17 03:22:06;;;;;;;22.98;17.90;;;;;;;20.32;89.55;97924.48;1706697;83;21509;-74
2021/07/17 03:24:32;;;;;;;23.22;17.07;;;;;;;20.27;89.71;97915.91;1706804;84;20958;-73
2021/07/17 03:26:58;;;;;;;23.25;18.90;;;;;;;20.25;89.54;97920.95;1707055;83;20882;-73
2021/07/17 03:29:24;;;;;;;23.00;18.05;;;;;;;20.24;89.57;97917.95;1706961;83;20922;-73
2021/07/17 03:31:50;;;;;;;20.43;17.70;;;;;;;20.29;89.34;97928.73;1706909;82;21175;-73
2021/07/17 03:34:16;;;;;;;24.75;18.95;;;;;;;20.33;89.13;97923.91;1706892;83;20997;-74
2021/07/17 03:36:42;;;;;;;22.70;16.97;;;;;;;20.42;89.14;97930.08;1707046;83;20933;-73
2021/07/17 03:39:09;;;;;;;21.87;17.75;;;;;;;20.45;88.74;97931.62;1706963;83;21419;-74
2021/07/17 03:41:36;;;;;;;21.90;17.55;;;;;;;20.36;88.77;97936.99;1706934;83;20966;-74
2021/07/17 03:44:04;;;;;;;23.10;18.85;;;;;;;20.38;88.88;97934.11;1706868;84;21986;-73
2021/07/17 03:46:30;;;;;;;24.27;19.37;;;;;;;20.48;88.87;97930.91;1706896;84;21104;-73
2021/07/17 03:48:56;;;;;;;20.50;17.90;;;;;;;20.62;88.62;97936.64;1706874;84;20899;-73
2021/07/17 03:51:23;;;;;;;26.00;18.92;;;;;;;20.69;88.42;97941.78;1706993;82;21476;-73
2021/07/17 03:53:48;;;;;;;24.82;18.77;;;;;;;20.74;88.21;97936.59;1706983;82;21014;-73
2021/07/17 03:56:14;;;;;;;29.37;19.52;;;;;;;20.80;88.02;97936.59;1707082;84;21972;-73
2021/07/17 03:58:41;;;;;;;24.72;19.27;;;;;;;20.85;87.67;97936.36;1706880;84;20906;-73
2021/07/17 04:01:09;;;;;;;28.83;19.82;;;;;;;20.84;87.49;97931.97;1704411;83;21415;-73
2021/07/17 04:03:34;;;;;;;31.50;19.93;;;;;;;20.91;87.44;97920.37;1697879;83;20919;-73
2021/07/17 04:06:00;;;;;;;29.00;19.82;;;;;;;20.99;87.42;97913.91;1699307;84;20958;-73
2021/07/17 04:08:26;;;;;;;28.57;18.77;;;;;;;21.07;87.90;97919.27;1699746;82;21289;-73
2021/07/17 04:10:52;;;;;;;27.98;17.27;;;;;;;21.15;87.52;97911.21;1698670;84;20878;-74
2021/07/17 04:13:18;;;;;;;19.52;17.30;;;;;;;21.19;87.18;97912.89;1699061;83;20919;-73
2021/07/17 04:15:44;;;;;;;22.13;17.80;;;;;;;21.26;87.14;97911.72;1699163;84;20871;-74
2021/07/17 04:18:10;;;;;;;24.05;17.62;;;;;;;21.33;86.96;97912.52;1699067;83;20835;-73
2021/07/17 04:20:36;;;;;;;27.55;17.60;;;;;;;21.42;86.60;97914.54;1698039;84;21915;-73
2021/07/17 04:23:03;;;;;;;22.13;17.10;;;;;;;21.44;86.55;97916.94;1699049;84;20910;-73
2021/07/17 04:25:29;;;;;;;25.68;17.65;;;;;;;21.46;86.50;97911.31;1699766;83;21010;-73
2021/07/17 04:27:55;;;;;;;25.75;17.90;;;;;;;21.44;86.21;97925.20;1698813;83;21417;-73
2021/07/17 04:30:21;;;;;;;29.60;17.75;;;;;;;21.40;86.52;97923.75;1698979;82;20950;-73
2021/07/17 04:32:47;;;;;;;27.90;17.05;;;;;;;21.40;86.68;97920.41;1698687;84;21325;-73
2021/07/17 04:35:13;;;;;;;24.30;16.45;;;;;;;21.46;86.51;97922.92;1699128;84;21504;-73
2021/07/17 04:37:39;;;;;;;22.10;16.20;;;;;;;21.39;86.63;97921.56;1698586;84;20941;-72
2021/07/17 04:40:06;;;;;;;20.70;17.45;;;;;;;21.40;86.15;97920.98;1698980;83;20827;-73
2021/07/17 04:42:32;;;;;;;25.97;17.60;;;;;;;21.37;86.38;97912.06;1699100;83;20966;-73
2021/07/17 04:44:58;;;;;;;24.57;16.90;;;;;;;21.45;86.36;97916.61;1699065;83;21288;-73
2021/07/17 04:47:24;;;;;;;24.20;17.92;;;;;;;21.52;86.29;97918.73;1699119;83;20858;-73
2021/07/17 04:49:49;;;;;;;26.73;17.77;;;;;;;21.51;86.30;97918.51;1699234;83;21009;-73
2021/07/17 04:52:15;;;;;;;22.98;17.82;;;;;;;21.52;86.19;97925.62;1699154;84;20839;-73
2021/07/17 04:54:41;;;;;;;24.65;17.00;;;;;;;21.57;86.47;97931.69;1699320;83;20932;-73
2021/07/17 04:57:07;;;;;;;23.40;17.48;;;;;;;21.59;86.26;97925.23;1699395;84;21172;-73
2021/07/17 04:59:33;;;;;;;23.02;17.32;;;;;;;21.66;86.13;97925.42;1699351;84;20859;-74
2021/07/17 05:01:59;;;;;;;20.27;17.70;;;;;;;21.74;86.07;97921.47;1699327;83;20874;-73
2021/07/17 05:04:25;;;;;;;23.07;17.05;;;;;;;21.90;85.86;97917.56;1699096;83;20879;-73
2021/07/17 05:06:51;;;;;;;22.70;17.60;;;;;;;22.08;85.48;97914.47;1699418;84;21545;-73
2021/07/17 05:09:17;;;;;;;25.08;18.00;;;;;;;22.29;85.18;97905.87;1699290;84;20985;-74
2021/07/17 05:11:43;;;;;;;20.40;16.23;;;;;;;22.39;84.46;97909.45;1699248;83;21500;-73
2021/07/17 05:14:08;;;;;;;27.25;17.57;;;;;;;22.43;84.37;97911.73;1699253;84;20846;-73
2021/07/17 05:16:35;;;;;;;22.82;18.48;;;;;;;22.47;84.37;97906.52;1699468;82;20946;-73
2021/07/17 05:19:01;;;;;;;22.82;17.45;;;;;;;22.37;84.35;97914.54;1699068;84;20967;-73
2021/07/17 05:21:27;;;;;;;23.35;17.60;;;;;;;22.34;84.22;97912.51;1699391;84;22003;-73
2021/07/17 05:23:53;;;;;;;24.52;17.73;;;;;;;22.41;84.30;97909.34;1699199;83;20913;-73
2021/07/17 05:26:18;;;;;;;25.23;17.55;;;;;;;22.48;84.51;97903.98;1699139;84;20938;-73
2021/07/17 05:28:44;;;;;;;21.70;15.38;;;;;;;22.61;84.11;97901.88;1699249;83;21437;-73
2021/07/17 05:31:10;;;;;;;23.30;16.55;;;;;;;22.73;83.50;97918.88;1699645;83;20855;-73
2021/07/17 05:33:36;;;;;;;24.20;16.23;;;;;;;22.79;83.26;97918.24;1699327;84;21879;-73
2021/07/17 05:36:03;;;;;;;19.80;14.50;;;;;;;22.83;82.90;97912.80;1699385;84;21022;-74
2021/07/17 05:38:29;;;;;;;19.02;13.90;;;;;;;23.00;82.43;97907.46;1697960;84;20942;-73
2021/07/17 05:40:55;;;;;;;20.05;14.33;;;;;;;23.09;81.12;97912.19;1699349;83;20851;-74
2021/07/17 05:43:20;;;;;;;21.97;13.98;;;;;;;23.26;81.53;97908.97;1699169;84;20867;-73
2021/07/17 05:45:49;;;;;;;17.23;14.38;;;;;;;23.45;81.25;97917.80;1699359;84;21735;-73
2021/07/17 05:48:14;;;;;;;15.70;14.00;;;;;;;23.58;80.74;97915.06;1699350;82;20959;-74
2021/07/17 05:50:40;;;;;;;19.85;14.28;;;;;;;23.65;80.72;97913.05;1699245;83;20878;-73
2021/07/17 05:53:08;;;;;;;18.45;13.75;;;;;;;23.67;80.10;97919.03;1699227;84;20988;-74
2021/07/17 05:55:34;;;;;;;15.75;13.85;;;;;;;23.68;80.04;97910.95;1698883;83;20891;-73
2021/07/17 05:58:00;;;;;;;20.05;13.75;;;;;;;23.57;79.23;97910.70;1699247;84;21052;-74
2021/07/17 06:00:26;;;;;;;19.73;12.78;;;;;;;23.46;79.38;97908.34;1699180;83;21022;-73
2021/07/17 06:02:52;;;;;;;16.70;11.97;;;;;;;23.30;79.55;97912.59;1704140;83;21001;-74
2021/07/17 06:05:18;;;;;;;18.05;12.35;;;;;;;23.31;79.67;97913.38;1707023;82;20867;-73
2021/07/17 06:07:44;;;;;;;19.25;12.73;;;;;;;23.26;79.29;97912.31;1706848;83;21017;-73
2021/07/17 06:10:11;;;;;;;24.80;15.50;;;;;;;23.18;78.99;97908.61;1706998;82;21209;-73
2021/07/17 06:12:36;;;;;;;18.42;13.90;;;;;;;23.00;79.60;97918.52;1706784;83;21450;-74
2021/07/17 06:15:05;;;;;;;18.57;12.73;;;;;;;22.83;79.99;97924.44;1706979;82;20874;-73
2021/07/17 06:17:31;;;;;;;19.20;13.98;;;;;;;22.61;79.85;97916.27;1707036;83;20919;-73
2021/07/17 06:19:57;;;;;;;17.20;12.35;;;;;;;22.58;80.18;97912.86;1707080;83;21632;-73
2021/07/17 06:22:23;;;;;;;19.92;12.60;;;;;;;22.63;80.17;97916.69;1706968;84;21138;-74
2021/07/17 06:24:49;;;;;;;14.95;11.35;;;;;;;22.49;80.03;97913.86;1706999;84;20969;-74
2021/07/17 06:27:15;;;;;;;18.92;12.93;;;;;;;22.68;80.06;97918.60;1706888;83;20879;-74
2021/07/17 06:29:41;;;;;;;15.43;11.83;;;;;;;22.86;79.78;97920.39;1706932;84;20961;-73
2021/07/17 06:32:07;;;;;;;15.68;10.90;;;;;;;22.95;79.40;97924.31;1707064;84;20965;-73
2021/07/17 06:34:32;;;;;;;23.07;12.60;;;;;;;23.00;78.71;97920.69;1706927;82;21185;-74
2021/07/17 06:36:59;;;;;;;19.02;12.00;;;;;;;23.12;78.71;97923.08;1707015;84;20890;-73
2021/07/17 06:39:25;;;;;;;18.90;11.63;;;;;;;23.14;78.19;97920.16;1706923;84;20954;-74
2021/07/17 06:41:51;;;;;;;15.23;12.05;;;;;;;23.32;77.94;97924.66;1707077;82;20898;-74
2021/07/17 06:44:16;;;;;;;14.13;10.45;;;;;;;23.34;76.91;97925.91;1707121;84;21623;-74
2021/07/17 06:46:42;;;;;;;17.73;11.90;;;;;;;23.17;76.75;97932.47;1707147;84;21057;-73
2021/07/17 06:49:09;;;;;;;16.00;10.70;;;;;;;23.01;76.77;97936.11;1706974;83;20902;-73
2021/07/17 06:51:35;;;;;;;16.73;11.57;;;;;;;23.22;76.77;97934.92;1696047;84;20934;-73
2021/07/17 06:54:01;;;;;;;12.30;10.20;;;;;;;23.31;76.77;97931.34;1691509;84;21465;-74
2021/07/17 06:56:27;;;;;;;14.87;10.20;;;;;;;23.45;76.46;97928.86;1707098;84;20867;-74
2021/07/17 06:58:53;;;;;;;18.25;11.12;;;;;;;23.69;76.24;97928.34;1707020;84;21331;-74
2021/07/17 07:01:19;;;;;;;14.68;11.43;;;;;;;23.82;75.30;97922.83;1707054;82;20921;-74
2021/07/17 07:03:45;;;;;;;15.75;11.65;;;;;;;23.72;74.50;97922.86;1699425;83;20965;-74
2021/07/17 07:06:11;;;;;;;17.20;11.70;;;;;;;23.85;74.05;97927.05;1699014;82;20843;-74
2021/07/17 07:08:37;;;;;;;18.70;13.43;;;;;;;23.74;74.43;97932.97;1699279;84;21001;-74
2021/07/17 07:11:03;;;;;;;22.22;14.78;;;;;;;23.83;74.92;97934.11;1698999;84;21220;-74
2021/07/17 07:13:29;;;;;;;19.25;13.08;;;;;;;23.75;74.40;97931.80;1698909;83;20998;-73
2021/07/17 07:15:55;;;;;;;15.63;12.28;;;;;;;23.81;74.67;97930.91;1699054;84;20898;-73
2021/07/17 07:18:21;;;;;;;15.03;11.30;;;;;;;23.87;74.78;97930.24;1699020;84;20855;-74
2021/07/17 07:20:47;;;;;;;24.10;15.43;;;;;;;23.97;74.75;97938.51;1699006;84;20855;-73
2021/07/17 07:23:13;;;;;;;15.98;12.50;;;;;;;24.05;74.66;97942.20;1698990;84;21316;-74
2021/07/17 07:25:39;;;;;;;22.93;15.15;;;;;;;24.15;74.48;97937.41;1698947;83;21014;-74
2021/07/17 07:28:05;;;;;;;18.05;12.80;;;;;;;24.23;73.90;97939.12;1699001;84;20835;-73
2021/07/17 07:30:32;;;;;;;17.45;12.98;;;;;;;24.25;73.15;97928.47;1698952;84;20851;-74
2021/07/17 07:32:57;;;;;;;21.27;12.78;;;;;;;24.22;72.68;97940.30;1698981;83;20867;-74
2021/07/17 07:35:24;;;;;;;17.15;13.28;;;;;;;24.27;73.10;97943.32;1700548;83;21833;-74
2021/07/17 07:37:51;;;;;;;16.40;12.85;;;;;;;24.36;73.07;97946.10;1698959;84;21018;-74
2021/07/17 07:40:17;;;;;;;20.25;11.70;;;;;;;24.53;72.88;97946.16;1699110;84;21058;-74
2021/07/17 07:42:43;;;;;;;14.90;12.15;;;;;;;24.61;72.19;97948.41;1698970;84;20945;-74
2021/07/17 07:45:10;;;;;;;14.65;11.35;;;;;;;24.78;72.16;97951.22;1699166;84;20938;-74
2021/07/17 07:47:35;;;;;;;17.10;11.70;;;;;;;24.94;71.67;97949.06;1699006;82;21285;-74
2021/07/17 07:50:02;;;;;;;17.92;11.25;;;;;;;25.15;71.20;97942.45;1699055;84;20905;-74
2021/07/17 07:52:28;;;;;;;15.72;12.20;;;;;;;25.33;69.47;97945.44;1698891;84;20963;-73
2021/07/17 07:54:54;;;;;;;19.30;12.47;;;;;;;25.51;69.06;97950.58;1699122;82;20808;-73
2021/07/17 07:57:20;;;;;;;15.65;12.47;;;;;;;25.67;68.85;97943.42;1699091;83;20906;-74
2021/07/17 07:59:46;;;;;;;17.02;12.82;;;;;;;25.87;68.43;97946.80;1699329;84;21143;-74
2021/07/17 08:02:12;;;;;;;16.60;12.50;;;;;;;25.96;67.96;97939.55;1700726;82;20855;-74
2021/07/17 08:04:38;;;;;;;19.65;12.65;;;;;;;26.08;68.62;97947.59;1708515;83;21399;-74
2021/07/17 08:07:04;;;;;;;12.98;11.45;;;;;;;26.07;68.06;97941.25;1706841;82;20910;-75
2021/07/17 08:09:30;;;;;;;19.37;11.38;;;;;;;25.87;67.84;97947.59;1707053;83;20981;-75
2021/07/17 08:11:56;;;;;;;15.68;11.18;;;;;;;25.62;66.75;97948.51;1706853;84;21773;-74
2021/07/17 08:14:22;;;;;;;14.40;11.22;;;;;;;25.54;67.60;97942.87;1706960;83;20850;-74
2021/07/17 08:16:48;;;;;;;14.28;10.10;;;;;;;25.51;67.55;97946.42;1707003;84;21622;-74
2021/07/17 08:19:15;;;;;;;15.48;10.58;;;;;;;25.68;67.05;97941.44;1707052;84;20926;-74
2021/07/17 08:21:41;;;;;;;17.30;10.50;;;;;;;25.98;65.41;97943.55;1706975;83;20931;-75
2021/07/17 08:24:08;;;;;;;15.10;10.93;;;;;;;26.35;66.15;97947.61;1706865;82;21295;-74
2021/07/17 08:26:35;;;;;;;19.45;12.55;;;;;;;26.37;65.55;97951.39;1706598;83;20927;-74
2021/07/17 08:29:01;;;;;;;15.00;10.98;;;;;;;26.48;65.44;97944.54;1707337;84;21021;-74
2021/07/17 08:31:27;;;;;;;19.62;15.58;;;;;;;26.34;64.71;97950.78;1706845;83;20917;-74
2021/07/17 08:33:53;;;;;;;13.48;9.38;;;;;;;26.55;64.79;97952.33;1707202;84;20973;-74
2021/07/17 08:36:19;;;;;;;12.95;10.72;;;;;;;26.39;64.43;97946.27;1706890;84;21083;-74
2021/07/17 08:38:44;;;;;;;15.13;11.18;;;;;;;26.28;64.55;97943.98;1707132;84;20984;-74
2021/07/17 08:41:11;;;;;;;17.17;13.08;;;;;;;26.14;64.09;97948.82;1706919;84;20854;-74
2021/07/17 08:43:39;;;;;;;13.10;11.70;;;;;;;26.07;64.98;97946.80;1707075;84;21065;-74
2021/07/17 08:46:05;;;;;;;11.88;9.15;;;;;;;26.50;64.96;97944.38;1707178;83;20982;-75
2021/07/17 08:48:32;;;;;;;12.33;8.75;;;;;;;26.80;64.21;97941.38;1706895;83;21444;-74
2021/07/17 08:50:59;;;;;;;14.30;9.35;;;;;;;27.21;63.72;97940.60;1687104;84;20958;-74
2021/07/17 08:53:25;;;;;;;16.05;10.35;;;;;;;26.76;62.40;97939.77;1706739;84;20970;-74
2021/07/17 08:55:51;;;;;;;14.03;9.90;;;;;;;26.98;62.35;97938.09;1706976;84;20850;-74
2021/07/17 08:58:17;;;;;;;12.43;9.90;;;;;;;27.43;60.91;97942.87;1706918;84;20926;-74
2021/07/17 09:00:44;;;;;;;13.28;9.80;;;;;;;27.16;61.30;97942.36;1707018;84;21291;-74
2021/07/17 09:03:13;;;;;;;12.45;9.70;;;;;;;27.47;60.48;97943.66;1708941;82;21410;-74
2021/07/17 09:05:42;;;;;;;15.88;9.83;;;;;;;27.17;59.98;97943.95;1686035;83;20924;-74
2021/07/17 09:08:10;;;;;;;13.15;9.35;;;;;;;27.51;60.54;97945.05;1711800;83;20969;-74
2021/07/17 09:10:38;;;;;;;16.50;10.45;;;;;;;27.27;61.12;97941.03;1709821;83;20966;-74
2021/07/17 09:13:29;;;;;;;12.65;9.00;;;;;;;27.33;60.49;97943.61;1706751;83;21394;-75
2021/07/17 09:16:10;;;;;;;11.70;9.15;;;;;;;27.96;59.25;97942.80;1706918;84;20967;-74
2021/07/17 09:18:48;;;;;;;11.83;9.60;;;;;;;29.01;55.09;97939.52;1707034;84;21415;-75
2021/07/17 09:21:26;;;;;;;11.80;8.68;;;;;;;30.07;54.73;97929.75;1707082;84;21021;-74
2021/07/17 09:24:02;;;;;;;11.50;8.65;;;;;;;29.93;55.30;97932.67;1707290;84;20959;-74
2021/07/17 09:26:39;;;;;;;13.08;9.33;;;;;;;29.97;51.67;97933.42;1706873;84;21131;-75
2021/07/17 09:29:12;;;;;;;11.95;9.18;;;;;;;31.45;51.47;97928.16;1706956;84;20966;-75
2021/07/17 09:31:57;;;;;;;10.98;8.03;;;;;;;30.80;48.98;97928.13;1706828;84;20982;-74
2021/07/17 09:34:25;;;;;;;9.78;8.50;;;;;;;30.64;51.70;97930.66;1707268;84;20970;-75
2021/07/17 09:37:07;;;;;;;15.88;8.40;;;;;;;30.61;51.88;97930.89;1706785;83;20978;-75
2021/07/17 09:39:35;;;;;;;12.88;8.05;;;;;;;30.63;51.64;97928.28;1707127;84;21157;-76
2021/07/17 09:42:09;;;;;;;12.78;8.20;;;;;;;30.45;51.89;97929.26;1706703;83;20942;-75
2021/07/17 09:44:36;;;;;;;9.60;7.83;;;;;;;30.30;52.64;97931.38;1707054;83;21454;-75
2021/07/17 09:47:03;;;;;;;11.25;7.20;;;;;;;29.93;51.87;97935.47;1706734;83;20931;-75
2021/07/17 09:49:29;;;;;;;9.73;7.50;;;;;;;29.57;52.52;97941.86;1686956;84;21014;-75
2021/07/17 09:52:16;;;;;;;9.98;7.62;;;;;;;29.15;52.85;97935.29;1706765;84;20990;-75
2021/07/17 09:55:05;;;;;;;12.17;8.43;;;;;;;28.80;54.30;97931.40;1707475;83;21009;-75
2021/07/17 09:57:32;;;;;;;8.65;7.75;;;;;;;28.49;55.16;97936.44;1706976;84;21023;-74
2021/07/17 10:00:13;;;;;;;12.13;8.20;;;;;;;27.95;56.72;97936.44;1707091;84;20974;-73
2021/07/17 10:02:40;;;;;;;11.40;7.35;;;;;;;27.97;56.39;97934.64;1706853;83;21422;-74
2021/07/17 10:05:10;;;;;;;10.30;8.13;;;;;;;28.05;56.88;97931.46;1699329;84;21191;-74
2021/07/17 10:07:36;;;;;;;12.98;8.63;;;;;;;27.85;56.35;97929.44;1699095;84;20907;-74
2021/07/17 10:10:06;;;;;;;12.33;8.68;;;;;;;28.18;55.98;97930.45;1699230;84;20978;-74
2021/07/17 10:12:40;;;;;;;9.73;8.15;;;;;;;28.78;54.85;97923.22;1699156;83;20923;-75
2021/07/17 10:15:08;;;;;;;10.95;8.58;;;;;;;29.18;54.44;97923.31;1699311;84;20963;-74
2021/07/17 10:17:38;;;;;;;9.18;8.18;;;;;;;29.52;54.23;97922.77;1699297;84;21753;-75
2021/07/17 10:20:13;;;;;;;12.55;8.50;;;;;;;28.92;52.46;97919.83;1699202;84;21410;-75
2021/07/17 10:22:39;;;;;;;9.48;8.38;;;;;;;28.58;54.32;97919.50;1699144;84;20970;-74
2021/07/17 10:25:08;;;;;;;10.95;7.92;;;;;;;28.59;54.80;97918.89;1679782;84;20989;-74
2021/07/17 10:27:34;;;;;;;9.08;7.42;;;;;;;28.25;55.60;97917.91;1697425;84;20962;-74
2021/07/17 10:30:06;;;;;;;9.83;8.10;;;;;;;28.10;55.85;97914.94;1699251;84;21302;-74
2021/07/17 10:32:32;;;;;;;10.08;7.62;;;;;;;28.04;56.50;97911.77;1698998;84;20955;-74
2021/07/17 10:34:58;;;;;;;9.33;8.33;;;;;;;27.82;56.56;97906.78;1699372;83;20843;-74
2021/07/17 10:37:30;;;;;;;11.68;8.63;;;;;;;28.34;56.42;97913.36;1699148;83;20920;-74
2021/07/17 10:40:04;;;;;;;10.82;9.38;;;;;;;28.50;55.30;97908.77;1699265;84;21018;-75
2021/07/17 10:42:31;;;;;;;10.32;7.97;;;;;;;28.66;53.77;97910.52;1698977;84;21201;-75
2021/07/17 10:44:57;;;;;;;11.60;8.45;;;;;;;30.36;51.76;97902.40;1699306;84;21438;-75
2021/07/17 10:47:23;;;;;;;10.08;7.95;;;;;;;31.65;49.29;97903.08;1699041;84;20878;-75
2021/07/17 10:49:51;;;;;;;8.73;7.90;;;;;;;31.77;48.15;97903.11;1699199;84;20998;-75
2021/07/17 10:52:47;;;;;;;10.90;8.50;;;;;;;32.05;46.12;97903.26;1699014;83;20998;-75
2021/07/17 10:55:32;;;;;;;8.73;7.83;;;;;;;32.42;46.03;97897.45;1698195;84;21448;-75
2021/07/17 10:58:15;;;;;;;10.13;8.38;;;;;;;31.61;48.15;97891.12;1699084;82;26791;-76
2021/07/17 11:00:47;;;;;;;12.45;8.68;;;;;;;31.27;48.23;97888.41;1699307;84;20979;-75
2021/07/17 11:03:29;;;;;;;13.98;8.85;;;;;;;31.34;47.91;97881.31;1698961;83;21003;-75
2021/07/17 11:05:56;;;;;;;11.38;8.43;;;;;;;31.26;48.39;97889.02;1696400;84;20959;-75
2021/07/17 11:08:36;;;;;;;13.10;8.48;;;;;;;30.59;49.78;97887.19;1699024;84;21350;-75
2021/07/17 11:11:31;;;;;;;10.80;8.08;;;;;;;29.99;50.77;97884.31;1699064;84;20923;-75
2021/07/17 11:14:10;;;;;;;12.95;8.88;;;;;;;31.21;48.81;97880.28;1699269;84;21002;-75
2021/07/17 11:16:43;;;;;;;11.73;8.40;;;;;;;30.63;49.69;97874.56;1681122;84;20946;-75
2021/07/17 11:19:23;;;;;;;9.03;7.95;;;;;;;31.48;48.49;97874.13;1699231;84;21017;-75
2021/07/17 11:21:49;;;;;;;13.45;9.05;;;;;;;32.33;45.62;97871.20;1699035;84;21128;-74